createdAt,value
2023-05-20T00:00:01.937Z,2.92
2023-05-20T00:02:35.449Z,3.75
2023-05-20T00:05:04.826Z,5.95
2023-05-20T00:07:33.203Z,2.05
2023-05-20T00:10:02.102Z,4.28
2023-05-20T00:12:30.122Z,4.88
2023-05-20T00:14:58.275Z,2.55
2023-05-20T00:17:28.812Z,3.72
2023-05-20T00:20:00.082Z,2.70
2023-05-20T00:22:29.009Z,3.00
2023-05-20T00:24:56.933Z,3.38
2023-05-20T00:27:25.475Z,4.18
2023-05-20T00:29:54.096Z,3.78
2023-05-20T00:32:22.211Z,5.15
2023-05-20T00:34:59.373Z,4.60
2023-05-20T00:37:27.386Z,2.95
2023-05-20T00:39:56.166Z,2.60
2023-05-20T00:42:25.297Z,3.63
2023-05-20T00:44:53.770Z,3.13
2023-05-20T00:47:25.141Z,2.95
2023-05-20T00:49:54.143Z,2.40
2023-05-20T00:52:23.959Z,3.92
2023-05-20T00:54:53.907Z,2.47
2023-05-20T00:57:22.047Z,2.75
2023-05-20T00:59:50.266Z,4.38
2023-05-20T01:02:19.647Z,3.65
2023-05-20T01:04:47.705Z,1.75
2023-05-20T01:07:18.519Z,3.35
2023-05-20T01:09:49.552Z,2.95
2023-05-20T01:14:51.157Z,2.40
2023-05-20T01:17:22.466Z,2.72
2023-05-20T01:19:51.958Z,2.25
2023-05-20T01:22:27.883Z,2.92
2023-05-20T01:24:57.727Z,4.07
2023-05-20T01:27:27.474Z,3.45
2023-05-20T01:29:55.911Z,2.97
2023-05-20T01:32:28.192Z,2.03
2023-05-20T01:34:57.820Z,2.70
2023-05-20T01:39:58.897Z,2.42
2023-05-20T01:42:28.184Z,4.15
2023-05-20T01:44:57.277Z,2.85
2023-05-20T01:47:25.680Z,3.05
2023-05-20T01:49:54.572Z,2.67
2023-05-20T01:52:23.989Z,2.42
2023-05-20T01:54:53.489Z,3.50
2023-05-20T01:57:24.311Z,3.58
2023-05-20T01:59:53.450Z,2.45
2023-05-20T02:02:23.006Z,9.07
2023-05-20T02:04:53.127Z,2.58
2023-05-20T02:07:21.120Z,3.22
2023-05-20T02:09:49.562Z,3.03
2023-05-20T02:15:19.296Z,2.95
2023-05-20T02:17:47.910Z,4.05
2023-05-20T02:20:17.194Z,4.90
2023-05-20T02:22:45.152Z,3.85
2023-05-20T02:25:14.284Z,3.42
2023-05-20T02:27:43.588Z,4.18
2023-05-20T02:30:12.942Z,4.07
2023-05-20T02:32:40.948Z,4.95
2023-05-20T02:35:09.484Z,4.25
2023-05-20T02:37:39.486Z,3.38
2023-05-20T02:40:10.452Z,3.80
2023-05-20T02:42:40.888Z,3.90
2023-05-20T02:45:11.208Z,4.30
2023-05-20T02:47:40.866Z,4.90
2023-05-20T02:50:09.968Z,6.45
2023-05-20T02:52:40.057Z,3.88
2023-05-20T02:55:09.596Z,3.00
2023-05-20T02:57:39.225Z,3.05
2023-05-20T03:00:13.453Z,2.80
2023-05-20T03:02:41.622Z,5.22
2023-05-20T03:05:11.517Z,4.25
2023-05-20T03:07:40.017Z,4.00
2023-05-20T03:10:09.418Z,3.38
2023-05-20T03:12:40.592Z,4.18
2023-05-20T03:17:41.587Z,4.47
2023-05-20T03:20:12.855Z,4.55
2023-05-20T03:22:42.847Z,5.20
2023-05-20T03:25:11.853Z,5.47
2023-05-20T03:27:39.853Z,5.53
2023-05-20T03:30:10.188Z,4.03
2023-05-20T03:32:39.593Z,10.10
2023-05-20T03:35:10.200Z,3.88
2023-05-20T03:37:39.300Z,3.65
2023-05-20T03:40:10.281Z,3.45
2023-05-20T03:42:41.127Z,4.07
2023-05-20T03:45:10.664Z,3.72
2023-05-20T03:47:48.353Z,6.22
2023-05-20T03:50:19.590Z,5.43
2023-05-20T03:52:47.988Z,5.17
2023-05-20T03:55:20.910Z,5.78
2023-05-20T03:57:49.319Z,3.22
2023-05-20T04:00:18.781Z,5.20
2023-05-20T04:02:48.641Z,4.78
2023-05-20T04:05:19.811Z,3.88
2023-05-20T04:07:50.103Z,3.22
2023-05-20T04:10:20.977Z,7.05
2023-05-20T04:12:49.952Z,4.53
2023-05-20T04:15:18.733Z,5.43
2023-05-20T04:17:54.348Z,3.35
2023-05-20T04:20:24.810Z,4.43
2023-05-20T04:22:56.275Z,4.93
2023-05-20T04:25:26.646Z,4.10
2023-05-20T04:27:55.454Z,3.40
2023-05-20T04:30:24.756Z,3.70
2023-05-20T04:32:55.532Z,4.25
2023-05-20T04:35:26.489Z,3.58
2023-05-20T04:37:58.290Z,4.82
2023-05-20T04:40:27.390Z,4.00
2023-05-20T04:42:58.602Z,3.83
2023-05-20T04:45:27.370Z,5.60
2023-05-20T04:47:58.531Z,3.83
2023-05-20T04:50:27.140Z,5.07
2023-05-20T04:52:56.155Z,7.90
2023-05-20T04:55:25.124Z,4.97
2023-05-20T04:57:54.019Z,3.72
2023-05-20T05:00:21.982Z,4.00
2023-05-20T05:02:50.727Z,4.30
2023-05-20T05:07:49.608Z,4.72
2023-05-20T05:10:17.803Z,4.88
2023-05-20T05:12:46.806Z,4.10
2023-05-20T05:15:15.746Z,4.55
2023-05-20T05:17:46.383Z,4.50
2023-05-20T05:20:15.328Z,4.15
2023-05-20T05:22:44.931Z,5.13
2023-05-20T05:25:15.099Z,5.50
2023-05-20T05:27:44.658Z,4.60
2023-05-20T05:30:13.800Z,7.18
2023-05-20T05:32:42.398Z,3.70
2023-05-20T05:35:11.130Z,3.53
2023-05-20T05:37:39.625Z,4.18
2023-05-20T05:40:10.873Z,4.47
2023-05-20T05:42:39.390Z,4.28
2023-05-20T05:45:09.917Z,4.27
2023-05-20T05:50:07.349Z,5.55
2023-05-20T05:52:36.388Z,4.18
2023-05-20T05:55:06.457Z,5.43
2023-05-20T05:57:36.033Z,4.65
2023-05-20T06:02:46.625Z,3.75
2023-05-20T06:05:25.068Z,4.75
2023-05-20T06:07:55.302Z,5.90
2023-05-20T06:10:23.330Z,3.58
2023-05-20T06:12:53.253Z,3.95
2023-05-20T06:17:50.404Z,5.68
2023-05-20T06:20:18.636Z,4.45
2023-05-20T06:22:48.002Z,3.90
2023-05-20T06:25:16.554Z,5.43
2023-05-20T06:27:44.801Z,3.58
2023-05-20T06:30:18.931Z,5.53
2023-05-20T06:32:47.581Z,4.25
2023-05-20T06:35:16.837Z,4.32
2023-05-20T06:37:44.914Z,3.47
2023-05-20T06:40:14.059Z,5.97
2023-05-20T06:42:42.396Z,4.85
2023-05-20T06:45:12.234Z,3.75
2023-05-20T06:47:55.304Z,5.50
2023-05-20T06:50:23.885Z,6.50
2023-05-20T06:52:52.922Z,5.93
2023-05-20T06:55:21.143Z,5.45
2023-05-20T06:57:49.591Z,5.28
2023-05-20T07:02:48.104Z,5.78
2023-05-20T07:05:17.849Z,4.68
2023-05-20T07:07:46.796Z,4.05
2023-05-20T07:10:16.758Z,4.40
2023-05-20T07:12:44.845Z,3.95
2023-05-20T07:15:14.041Z,4.55
2023-05-20T07:17:43.304Z,5.95
2023-05-20T07:20:11.943Z,4.57
2023-05-20T07:22:41.996Z,5.32
2023-05-20T07:25:15.352Z,4.65
2023-05-20T07:27:43.498Z,6.68
2023-05-20T07:30:12.381Z,6.10
2023-05-20T07:32:42.802Z,6.57
2023-05-20T07:35:11.075Z,5.60
2023-05-20T07:37:39.564Z,9.05
2023-05-20T07:40:11.662Z,5.95
2023-05-20T07:42:40.190Z,6.13
2023-05-20T07:45:09.305Z,7.00
2023-05-20T07:47:38.378Z,7.10
2023-05-20T07:50:07.812Z,8.20
2023-05-20T07:52:51.825Z,6.20
2023-05-20T07:55:29.024Z,7.33
2023-05-20T07:57:58.132Z,5.57
2023-05-20T08:00:27.457Z,4.95
2023-05-20T08:02:56.172Z,6.13
2023-05-20T08:05:32.573Z,6.78
2023-05-20T08:08:01.680Z,4.90
2023-05-20T08:10:35.183Z,4.65
2023-05-20T08:13:03.196Z,4.90
2023-05-20T08:15:31.225Z,5.07
2023-05-20T08:17:59.728Z,5.28
2023-05-20T08:20:27.830Z,4.65
2023-05-20T08:22:58.702Z,5.75
2023-05-20T08:25:27.169Z,4.22
2023-05-20T08:27:56.758Z,4.53
2023-05-20T08:30:26.041Z,5.90
2023-05-20T08:32:54.246Z,3.22
2023-05-20T08:35:24.719Z,4.25
2023-05-20T08:37:54.663Z,4.00
2023-05-20T08:40:23.356Z,2.85
2023-05-20T08:42:53.969Z,4.03
2023-05-20T08:45:28.677Z,3.28
2023-05-20T08:48:02.669Z,3.53
2023-05-20T08:50:30.771Z,3.13
2023-05-20T08:52:59.024Z,4.30
2023-05-20T08:55:41.659Z,2.63
2023-05-20T08:58:10.591Z,2.90
2023-05-20T09:00:42.037Z,2.90
2023-05-20T09:03:10.137Z,2.80
2023-05-20T09:05:38.466Z,3.00
2023-05-20T09:08:08.072Z,3.05
2023-05-20T09:11:25.668Z,5.35
2023-05-20T09:16:22.472Z,3.65
2023-05-20T09:18:52.391Z,4.30
2023-05-20T09:21:27.915Z,4.25
2023-05-20T09:23:57.500Z,4.15
2023-05-20T09:26:29.157Z,3.10
2023-05-20T09:28:57.417Z,3.95
2023-05-20T09:31:28.217Z,3.05
2023-05-20T09:33:56.646Z,4.60
2023-05-20T09:36:27.521Z,3.08
2023-05-20T09:38:59.738Z,3.10
2023-05-20T09:41:37.346Z,2.83
2023-05-20T09:44:06.719Z,3.47
2023-05-20T09:46:35.131Z,5.13
2023-05-20T09:49:07.260Z,4.65
2023-05-20T09:51:35.490Z,3.60
2023-05-20T09:54:08.421Z,3.10
2023-05-20T09:56:38.265Z,4.68
2023-05-20T09:59:07.496Z,3.00
2023-05-20T10:01:36.145Z,4.15
2023-05-20T10:04:07.869Z,4.13
2023-05-20T10:06:57.901Z,4.07
2023-05-20T10:09:51.058Z,3.60
2023-05-20T10:12:29.587Z,3.38
2023-05-20T10:15:10.110Z,3.67
2023-05-20T10:17:46.847Z,3.65
2023-05-20T10:20:15.582Z,4.43
2023-05-20T10:22:45.297Z,3.30
2023-05-20T10:25:25.297Z,5.25
2023-05-20T10:28:07.861Z,5.00
2023-05-20T10:30:36.670Z,4.28
2023-05-20T10:33:07.240Z,4.38
2023-05-20T10:35:35.778Z,4.28
2023-05-20T10:38:12.739Z,5.70
2023-05-20T10:40:40.870Z,3.97
2023-05-20T10:43:15.000Z,4.32
2023-05-20T10:45:50.915Z,4.25
2023-05-20T10:48:26.041Z,4.47
2023-05-20T10:50:58.031Z,6.22
2023-05-20T10:53:33.670Z,4.28
2023-05-20T10:56:03.037Z,5.15
2023-05-20T10:58:40.552Z,4.00
2023-05-20T11:01:08.764Z,4.03
2023-05-20T11:03:37.295Z,4.78
2023-05-20T11:06:12.959Z,5.28
2023-05-20T11:08:41.484Z,4.15
2023-05-20T11:11:10.398Z,3.88
2023-05-20T11:13:39.954Z,4.90
2023-05-20T11:16:08.653Z,4.22
2023-05-20T11:18:36.816Z,5.20
2023-05-20T11:21:04.943Z,5.88
2023-05-20T11:23:34.068Z,5.60
2023-05-20T11:26:02.762Z,3.97
2023-05-20T11:28:33.624Z,4.82
2023-05-20T11:31:03.551Z,6.32
2023-05-20T11:33:31.734Z,5.40
2023-05-20T11:36:00.651Z,4.70
2023-05-20T11:38:28.668Z,4.57
2023-05-20T11:40:57.480Z,5.20
2023-05-20T11:43:26.705Z,6.93
2023-05-20T11:45:56.419Z,4.40
2023-05-20T11:48:27.002Z,4.47
2023-05-20T11:50:56.851Z,7.20
2023-05-20T11:53:26.680Z,5.18
2023-05-20T11:55:56.861Z,4.50
2023-05-20T11:58:27.028Z,4.20
2023-05-20T12:03:36.118Z,4.85
2023-05-20T12:06:04.873Z,3.88
2023-05-20T12:08:33.392Z,5.07
2023-05-20T12:11:01.367Z,4.30
2023-05-20T12:13:30.463Z,3.75
2023-05-20T12:15:59.374Z,3.67
2023-05-20T12:18:27.575Z,5.77
2023-05-20T12:20:57.963Z,4.55
2023-05-20T12:23:26.543Z,5.00
2023-05-20T12:25:54.881Z,4.78
2023-05-20T12:28:24.119Z,3.40
2023-05-20T12:30:52.184Z,3.00
2023-05-20T12:33:21.529Z,3.50
2023-05-20T12:35:49.566Z,3.20
2023-05-20T12:38:19.400Z,3.90
2023-05-20T12:43:16.087Z,5.78
2023-05-20T12:45:44.477Z,4.60
2023-05-20T12:48:12.591Z,3.38
2023-05-20T12:50:41.860Z,6.00
2023-05-20T12:53:10.324Z,3.45
2023-05-20T12:55:40.818Z,2.95
2023-05-20T12:58:09.876Z,3.15
2023-05-20T13:00:37.929Z,2.83
2023-05-20T13:03:07.247Z,4.53
2023-05-20T13:05:35.398Z,4.68
2023-05-20T13:08:03.881Z,3.70
2023-05-20T13:10:31.938Z,4.65
2023-05-20T13:13:01.363Z,2.97
2023-05-20T13:15:29.336Z,4.15
2023-05-20T13:17:58.485Z,3.50
2023-05-20T13:20:26.648Z,2.85
2023-05-20T13:22:55.695Z,4.90
2023-05-20T13:25:23.703Z,5.18
2023-05-20T13:27:51.769Z,3.33
2023-05-20T13:30:21.155Z,4.00
2023-05-20T13:32:49.217Z,4.03
2023-05-20T13:35:18.704Z,2.53
2023-05-20T13:37:46.749Z,4.18
2023-05-20T13:40:14.980Z,3.78
2023-05-20T13:42:44.620Z,4.47
2023-05-20T13:45:13.015Z,6.35
2023-05-20T13:47:43.376Z,3.30
2023-05-20T13:50:12.183Z,4.10
2023-05-20T13:52:40.749Z,3.20
2023-05-20T13:55:10.019Z,6.30
2023-05-20T13:57:38.009Z,3.78
2023-05-20T14:00:07.280Z,4.75
2023-05-20T14:02:37.468Z,3.35
2023-05-20T14:05:08.801Z,5.53
2023-05-20T14:07:36.931Z,3.85
2023-05-20T14:10:05.499Z,3.00
2023-05-20T14:12:34.484Z,5.80
2023-05-20T14:15:02.482Z,3.65
2023-05-20T14:17:31.462Z,4.00
2023-05-20T14:20:00.607Z,4.10
2023-05-20T14:22:31.311Z,6.03
2023-05-20T14:24:59.594Z,5.20
2023-05-20T14:27:27.568Z,3.30
2023-05-20T14:29:56.511Z,4.10
2023-05-20T14:32:25.403Z,4.07
2023-05-20T14:34:53.799Z,5.93
2023-05-20T14:37:22.957Z,5.00
2023-05-20T14:42:21.102Z,3.88
2023-05-20T14:44:50.379Z,5.10
2023-05-20T14:47:21.865Z,4.25
2023-05-20T14:49:51.014Z,5.28
2023-05-20T14:52:19.706Z,4.75
2023-05-20T14:54:48.174Z,7.22
2023-05-20T14:57:17.639Z,4.80
2023-05-20T14:59:46.693Z,5.13
2023-05-20T15:02:16.116Z,6.68
2023-05-20T15:04:47.261Z,5.30
2023-05-20T15:07:15.808Z,5.65
2023-05-20T15:09:44.569Z,8.43
2023-05-20T15:12:13.540Z,5.53
2023-05-20T15:14:42.871Z,5.68
2023-05-20T15:19:41.792Z,6.35
2023-05-20T15:22:11.065Z,5.60
2023-05-20T15:24:39.109Z,7.82
2023-05-20T15:27:07.860Z,6.45
2023-05-20T15:29:38.065Z,5.13
2023-05-20T15:32:08.590Z,5.07
2023-05-20T15:34:37.604Z,5.97
2023-05-20T15:37:06.034Z,5.47
2023-05-20T15:39:38.986Z,5.57
2023-05-20T15:42:07.485Z,6.30
2023-05-20T15:44:36.568Z,5.90
2023-05-20T15:47:06.319Z,6.00
2023-05-20T15:49:36.205Z,7.70
2023-05-20T15:52:04.876Z,6.50
2023-05-20T15:54:33.046Z,6.35
2023-05-20T15:57:04.071Z,5.50
2023-05-20T15:59:32.152Z,6.37
2023-05-20T16:02:00.835Z,5.97
2023-05-20T16:04:29.410Z,6.20
2023-05-20T16:06:59.315Z,6.78
2023-05-20T16:09:27.402Z,6.70
2023-05-20T16:11:56.149Z,7.80
2023-05-20T16:14:25.178Z,6.55
2023-05-20T16:16:53.180Z,7.35
2023-05-20T16:19:21.718Z,7.45
2023-05-20T16:21:50.210Z,6.07
2023-05-20T16:24:19.621Z,7.43
2023-05-20T16:29:16.623Z,7.40
2023-05-20T16:31:47.226Z,7.05
2023-05-20T16:34:16.929Z,7.15
2023-05-20T16:36:46.757Z,12.40
2023-05-20T16:39:15.087Z,7.18
2023-05-20T16:41:47.118Z,6.35
2023-05-20T16:44:15.226Z,7.07
2023-05-20T16:46:43.367Z,8.30
2023-05-20T16:49:12.298Z,10.63
2023-05-20T16:51:40.317Z,7.38
2023-05-20T16:54:09.247Z,9.10
2023-05-20T16:56:37.658Z,7.88
2023-05-20T16:59:07.379Z,7.45
2023-05-20T17:01:37.293Z,10.00
2023-05-20T17:04:06.705Z,9.35
2023-05-20T17:06:35.034Z,7.78
2023-05-20T17:09:04.744Z,7.93
2023-05-20T17:11:33.410Z,7.10
2023-05-20T17:14:01.805Z,7.55
2023-05-20T17:16:31.319Z,9.27
2023-05-20T17:19:00.289Z,10.73
2023-05-20T17:21:28.319Z,7.97
2023-05-20T17:23:56.774Z,7.25
2023-05-20T17:26:26.388Z,7.20
2023-05-20T17:28:54.445Z,7.38
2023-05-20T17:31:22.469Z,7.68
2023-05-20T17:33:52.828Z,7.35
2023-05-20T17:36:22.557Z,6.70
2023-05-20T17:38:51.965Z,9.30
2023-05-20T17:41:19.973Z,9.23
2023-05-20T17:43:48.480Z,7.32
2023-05-20T17:46:17.050Z,7.07
2023-05-20T17:48:45.742Z,8.27
2023-05-20T17:51:15.937Z,7.50
2023-05-20T17:53:45.163Z,8.10
2023-05-20T17:56:13.971Z,8.75
2023-05-20T17:58:45.390Z,6.57
2023-05-20T18:01:13.492Z,7.57
2023-05-20T18:03:41.774Z,7.57
2023-05-20T18:06:10.990Z,7.50
2023-05-20T18:08:40.319Z,8.63
2023-05-20T18:13:36.954Z,7.68
2023-05-20T18:16:06.196Z,11.45
2023-05-20T18:18:34.188Z,7.55
2023-05-20T18:21:05.880Z,7.63
2023-05-20T18:23:34.788Z,7.45
2023-05-20T18:26:07.077Z,8.30
2023-05-20T18:28:36.125Z,9.88
2023-05-20T18:31:04.092Z,8.57
2023-05-20T18:33:33.061Z,7.93
2023-05-20T18:36:01.760Z,7.97
2023-05-20T18:38:30.588Z,7.45
2023-05-20T18:40:58.581Z,7.30
2023-05-20T18:43:28.881Z,7.85
2023-05-20T18:45:57.201Z,7.78
2023-05-20T18:48:27.086Z,6.65
2023-05-20T18:50:56.602Z,9.00
2023-05-20T18:53:24.570Z,9.32
2023-05-20T18:55:53.048Z,9.63
2023-05-20T18:58:21.447Z,7.30
2023-05-20T19:00:50.858Z,8.35
2023-05-20T19:05:48.338Z,9.18
2023-05-20T19:08:17.084Z,9.85
2023-05-20T19:10:45.094Z,9.85
2023-05-20T19:13:13.500Z,8.20
2023-05-20T19:15:41.532Z,7.18
2023-05-20T19:18:11.389Z,6.90
2023-05-20T19:20:40.225Z,7.88
2023-05-20T19:23:08.319Z,7.32
2023-05-20T19:25:36.715Z,7.13
2023-05-20T19:28:05.253Z,8.07
2023-05-20T19:30:33.846Z,8.02
2023-05-20T19:33:04.669Z,6.43
2023-05-20T19:35:34.679Z,7.32
2023-05-20T19:38:04.950Z,8.90
2023-05-20T19:40:34.765Z,7.53
2023-05-20T19:43:03.351Z,7.00
2023-05-20T19:45:32.220Z,7.97
2023-05-20T19:48:00.814Z,6.32
2023-05-20T19:50:29.331Z,9.27
2023-05-20T19:52:59.130Z,6.07
2023-05-20T19:58:02.085Z,6.55
2023-05-20T20:00:30.611Z,7.63
2023-05-20T20:02:58.669Z,7.05
2023-05-20T20:05:26.978Z,6.25
2023-05-20T20:07:55.077Z,9.10
2023-05-20T20:10:24.567Z,8.13
2023-05-20T20:12:53.409Z,6.13
2023-05-20T20:15:21.459Z,7.13
2023-05-20T20:17:52.712Z,6.85
2023-05-20T20:20:21.071Z,7.32
2023-05-20T20:22:49.037Z,7.97
2023-05-20T20:25:18.905Z,6.93
2023-05-20T20:30:17.238Z,6.05
2023-05-20T20:32:48.629Z,7.35
2023-05-20T20:35:17.163Z,6.40
2023-05-20T20:37:45.155Z,7.03
2023-05-20T20:40:14.436Z,6.32
2023-05-20T20:42:44.928Z,6.03
2023-05-20T20:45:15.196Z,8.05
2023-05-20T20:47:43.860Z,6.68
2023-05-20T20:50:12.608Z,6.50
2023-05-20T20:52:42.908Z,6.78
2023-05-20T20:55:11.567Z,6.55
2023-05-20T20:57:41.984Z,5.97
2023-05-20T21:00:16.909Z,8.27
2023-05-20T21:02:46.595Z,7.07
2023-05-20T21:05:16.923Z,6.70
2023-05-20T21:10:14.846Z,6.55
2023-05-20T21:12:44.272Z,5.20
2023-05-20T21:15:15.515Z,5.85
2023-05-20T21:17:43.578Z,6.82
2023-05-20T21:20:15.772Z,6.05
2023-05-20T21:22:43.857Z,6.05
2023-05-20T21:25:13.509Z,6.85
2023-05-20T21:27:42.798Z,4.18
2023-05-20T21:30:12.360Z,6.15
2023-05-20T21:32:41.318Z,6.50
2023-05-20T21:35:10.378Z,6.78
2023-05-20T21:37:40.208Z,5.05
2023-05-20T21:40:09.343Z,6.25
2023-05-20T21:42:37.900Z,7.28
2023-05-20T21:45:07.380Z,4.95
2023-05-20T21:47:35.453Z,5.43
2023-05-20T21:50:04.324Z,7.00
2023-05-20T21:52:32.501Z,6.73
2023-05-20T21:55:02.109Z,6.55
2023-05-20T21:57:31.426Z,7.65
2023-05-20T21:59:59.393Z,5.50
2023-05-20T22:02:28.128Z,7.10
2023-05-20T22:04:58.116Z,5.65
2023-05-20T22:07:26.219Z,6.45
2023-05-20T22:09:54.286Z,7.03
2023-05-20T22:12:24.597Z,6.13
2023-05-20T22:17:22.059Z,7.22
2023-05-20T22:19:50.110Z,5.68
2023-05-20T22:22:18.415Z,7.47
2023-05-20T22:24:47.035Z,6.45
2023-05-20T22:27:15.073Z,5.30
2023-05-20T22:29:45.556Z,6.53
2023-05-20T22:34:41.425Z,6.63
2023-05-20T22:37:10.533Z,8.55
2023-05-20T22:39:38.744Z,7.82
2023-05-20T22:42:08.020Z,7.97
2023-05-20T22:44:36.104Z,7.15
2023-05-20T22:47:06.085Z,7.60
2023-05-20T22:49:34.697Z,8.55
2023-05-20T22:52:02.756Z,9.30
2023-05-20T22:54:30.764Z,10.52
2023-05-20T22:57:00.447Z,11.38
2023-05-20T22:59:31.048Z,10.55
2023-05-20T23:02:00.173Z,7.40
2023-05-20T23:04:30.313Z,9.55
2023-05-20T23:06:59.509Z,7.38
2023-05-20T23:09:28.142Z,11.18
2023-05-20T23:11:58.010Z,7.32
2023-05-20T23:14:26.041Z,6.95
2023-05-20T23:16:54.620Z,6.93
2023-05-20T23:19:23.744Z,6.97
2023-05-20T23:21:53.137Z,7.88
2023-05-20T23:26:49.829Z,8.52
2023-05-20T23:29:17.912Z,9.13
2023-05-20T23:31:47.595Z,7.05
2023-05-20T23:34:16.852Z,8.93
2023-05-20T23:36:45.784Z,8.45
2023-05-20T23:39:18.156Z,10.02
2023-05-20T23:41:46.533Z,7.47
2023-05-20T23:44:14.555Z,7.00
2023-05-20T23:46:43.580Z,6.38
2023-05-20T23:49:13.107Z,7.78
2023-05-20T23:51:41.114Z,6.68
2023-05-20T23:54:09.576Z,6.78
2023-05-20T23:56:39.034Z,7.22
2023-05-20T23:59:07.271Z,6.55
